createdAt,value
2018-04-02T00:01:47.386Z,5.68
2018-04-02T00:04:15.011Z,5.85
2018-04-02T00:06:43.380Z,6.20
2018-04-02T00:09:11.788Z,6.57
2018-04-02T00:11:39.448Z,6.00
2018-04-02T00:14:07.606Z,6.18
2018-04-02T00:16:35.303Z,6.25
2018-04-02T00:19:02.944Z,6.32
2018-04-02T00:21:31.414Z,6.47
2018-04-02T00:23:59.865Z,6.28
2018-04-02T00:26:27.531Z,6.53
2018-04-02T00:28:55.838Z,6.57
2018-04-02T00:31:24.225Z,6.35
2018-04-02T00:33:51.857Z,6.30
2018-04-02T00:36:19.486Z,6.70
2018-04-02T00:38:47.881Z,6.72
2018-04-02T00:41:15.594Z,6.45
2018-04-02T00:43:43.268Z,7.12
2018-04-02T00:46:10.888Z,6.20
2018-04-02T00:48:38.530Z,9.33
2018-04-02T00:51:06.974Z,7.15
2018-04-02T00:53:34.616Z,6.75
2018-04-02T00:56:02.281Z,7.95
2018-04-02T00:58:30.257Z,6.93
2018-04-02T01:00:57.884Z,6.72
2018-04-02T01:03:25.576Z,7.72
2018-04-02T01:05:53.230Z,6.87
2018-04-02T01:08:21.843Z,6.82
2018-04-02T01:10:49.462Z,7.25
2018-04-02T01:13:17.133Z,8.65
2018-04-02T01:15:45.852Z,7.37
2018-04-02T01:18:13.468Z,7.10
2018-04-02T01:20:41.092Z,6.97
2018-04-02T01:23:08.801Z,7.35
2018-04-02T01:25:36.477Z,6.70
2018-04-02T01:28:04.093Z,7.57
2018-04-02T01:30:31.691Z,7.32
2018-04-02T01:32:59.331Z,6.32
2018-04-02T01:35:26.962Z,7.30
2018-04-02T01:37:55.400Z,7.00
2018-04-02T01:40:23.080Z,6.85
2018-04-02T01:42:51.611Z,6.83
2018-04-02T01:45:19.994Z,6.10
2018-04-02T01:47:48.380Z,7.30
2018-04-02T01:50:16.764Z,6.95
2018-04-02T01:52:44.401Z,7.25
2018-04-02T01:55:12.037Z,7.35
2018-04-02T01:57:39.647Z,6.18
2018-04-02T02:00:07.301Z,6.82
2018-04-02T02:02:35.691Z,6.82
2018-04-02T02:05:03.379Z,7.03
2018-04-02T02:07:31.019Z,8.70
2018-04-02T02:09:59.743Z,6.80
2018-04-02T02:12:28.144Z,7.47
2018-04-02T02:14:55.760Z,7.13
2018-04-02T02:17:23.430Z,10.07
2018-04-02T02:19:51.075Z,7.12
2018-04-02T02:22:18.714Z,8.38
2018-04-02T02:24:46.367Z,7.80
2018-04-02T02:27:14.011Z,8.23
2018-04-02T02:29:41.904Z,8.32
2018-04-02T02:32:09.556Z,8.55
2018-04-02T02:34:38.865Z,8.55
2018-04-02T02:37:07.249Z,8.68
2018-04-02T02:39:35.640Z,9.80
2018-04-02T02:42:03.284Z,9.52
2018-04-02T02:44:30.905Z,8.88
2018-04-02T02:46:58.542Z,9.05
2018-04-02T02:49:26.418Z,9.98
2018-04-02T02:51:54.065Z,10.35
2018-04-02T02:54:22.485Z,8.82
2018-04-02T02:56:50.143Z,10.70
2018-04-02T02:59:17.801Z,11.15
2018-04-02T03:01:45.600Z,8.85
2018-04-02T03:04:13.249Z,9.73
2018-04-02T03:06:40.863Z,10.05
2018-04-02T03:09:08.486Z,9.32
2018-04-02T03:11:36.138Z,10.65
2018-04-02T03:14:03.779Z,10.35
2018-04-02T03:16:33.076Z,9.80
2018-04-02T03:19:00.681Z,10.23
2018-04-02T03:21:28.528Z,10.88
2018-04-02T03:23:56.148Z,10.17
2018-04-02T03:26:23.822Z,11.40
2018-04-02T03:28:51.450Z,9.98
2018-04-02T03:31:19.097Z,9.77
2018-04-02T03:33:47.512Z,10.50
2018-04-02T03:36:15.359Z,11.07
2018-04-02T03:38:43.044Z,12.15
2018-04-02T03:41:10.710Z,10.63
2018-04-02T03:43:38.324Z,10.68
2018-04-02T03:46:06.719Z,11.32
2018-04-02T03:48:35.131Z,12.30
2018-04-02T03:51:02.768Z,11.32
2018-04-02T03:53:30.390Z,11.10
2018-04-02T03:55:58.119Z,9.63
2018-04-02T03:58:26.536Z,13.68
2018-04-02T04:00:54.152Z,11.68
2018-04-02T04:03:22.706Z,11.10
2018-04-02T04:05:50.395Z,13.57
2018-04-02T04:08:18.060Z,12.40
2018-04-02T04:10:45.694Z,12.88
2018-04-02T04:13:13.349Z,10.77
2018-04-02T04:15:41.067Z,12.48
2018-04-02T04:18:09.471Z,13.75
2018-04-02T04:20:38.230Z,12.13
2018-04-02T04:23:10.639Z,11.90
2018-04-02T04:25:39.042Z,12.18
2018-04-02T04:28:06.724Z,11.50
2018-04-02T04:30:34.370Z,11.73
2018-04-02T04:33:02.793Z,11.75
2018-04-02T04:35:30.438Z,12.87
2018-04-02T04:37:58.052Z,11.18
2018-04-02T04:40:25.775Z,13.15
2018-04-02T04:42:54.122Z,11.98
2018-04-02T04:45:22.530Z,12.43
2018-04-02T04:47:50.168Z,10.63
2018-04-02T04:50:17.818Z,13.75
2018-04-02T04:52:45.490Z,13.25
2018-04-02T04:55:13.130Z,11.63
2018-04-02T04:57:40.760Z,14.03
2018-04-02T05:00:08.458Z,12.80
2018-04-02T05:02:36.071Z,12.45
2018-04-02T05:05:04.502Z,11.10
2018-04-02T05:07:32.174Z,12.35
2018-04-02T05:09:59.781Z,10.23
2018-04-02T05:12:27.606Z,13.52
2018-04-02T05:14:55.274Z,13.20
2018-04-02T05:17:22.904Z,11.55
2018-04-02T05:19:51.318Z,12.27
2018-04-02T05:22:18.962Z,12.20
2018-04-02T05:24:46.603Z,13.10
2018-04-02T05:27:15.724Z,10.90
2018-04-02T05:29:43.357Z,12.27
2018-04-02T05:32:11.019Z,12.35
2018-04-02T05:34:38.682Z,12.55
2018-04-02T05:37:06.447Z,12.07
2018-04-02T05:39:34.073Z,12.27
2018-04-02T05:42:01.694Z,12.48
2018-04-02T05:44:30.106Z,12.77
2018-04-02T05:46:58.508Z,12.15
2018-04-02T05:49:26.256Z,10.43
2018-04-02T05:51:54.713Z,10.60
2018-04-02T05:54:22.384Z,11.48
2018-04-02T05:56:50.046Z,11.05
2018-04-02T05:59:17.793Z,12.63
2018-04-02T06:01:45.428Z,10.73
2018-04-02T06:04:13.093Z,10.85
2018-04-02T06:06:40.891Z,11.00
2018-04-02T06:09:08.635Z,10.73
2018-04-02T06:11:37.071Z,11.05
2018-04-02T06:14:04.699Z,12.10
2018-04-02T06:16:32.349Z,12.60
2018-04-02T06:18:59.994Z,12.18
2018-04-02T06:21:28.399Z,13.68
2018-04-02T06:23:56.054Z,13.05
2018-04-02T06:26:24.576Z,13.10
2018-04-02T06:28:52.212Z,10.57
2018-04-02T06:31:20.631Z,9.70
2018-04-02T06:33:48.300Z,11.90
2018-04-02T06:36:15.922Z,11.20
2018-04-02T06:38:44.362Z,10.73
2018-04-02T06:41:11.997Z,9.52
2018-04-02T06:43:40.354Z,11.38
2018-04-02T06:46:08.235Z,9.67
2018-04-02T06:48:35.858Z,9.85
2018-04-02T06:51:03.511Z,11.87
2018-04-02T06:53:31.159Z,10.73
2018-04-02T06:55:59.306Z,9.93
2018-04-02T06:58:26.940Z,9.88
2018-04-02T07:00:54.622Z,11.10
2018-04-02T07:03:22.260Z,11.50
2018-04-02T07:05:49.904Z,9.97
2018-04-02T07:08:18.214Z,11.40
2018-04-02T07:10:45.852Z,9.77
2018-04-02T07:13:13.520Z,10.38
2018-04-02T07:15:41.164Z,11.07
2018-04-02T07:18:09.590Z,9.57
2018-04-02T07:20:37.240Z,9.27
2018-04-02T07:23:04.878Z,11.35
2018-04-02T07:25:33.279Z,10.43
2018-04-02T07:28:00.913Z,9.88
2018-04-02T07:30:29.293Z,10.60
2018-04-02T07:32:57.105Z,10.33
2018-04-02T07:35:24.685Z,12.20
2018-04-02T07:37:52.345Z,10.93
2018-04-02T07:40:19.999Z,10.00
2018-04-02T07:42:47.639Z,8.98
2018-04-02T07:45:16.053Z,9.13
2018-04-02T07:47:43.686Z,11.98
2018-04-02T07:50:12.994Z,9.57
2018-04-02T07:52:42.185Z,11.12
2018-04-02T07:55:09.878Z,12.00
2018-04-02T07:57:37.528Z,10.30
2018-04-02T08:00:05.883Z,11.48
2018-04-02T08:02:33.576Z,9.60
2018-04-02T08:05:02.407Z,11.02
2018-04-02T08:07:30.078Z,11.80
2018-04-02T08:09:57.726Z,9.82
2018-04-02T08:12:25.392Z,10.35
2018-04-02T08:14:53.024Z,9.83
2018-04-02T08:17:20.651Z,9.90
2018-04-02T08:19:49.154Z,9.52
2018-04-02T08:22:16.819Z,10.40
2018-04-02T08:24:44.511Z,9.50
2018-04-02T08:27:12.375Z,9.57
2018-04-02T08:29:40.255Z,10.20
2018-04-02T08:32:08.676Z,9.80
2018-04-02T08:34:36.319Z,9.65
2018-04-02T08:37:03.925Z,9.15
2018-04-02T08:39:31.609Z,9.88
2018-04-02T08:41:59.256Z,9.77
2018-04-02T08:44:26.863Z,10.90
2018-04-02T08:46:54.447Z,9.10
2018-04-02T08:49:22.924Z,8.25
2018-04-02T08:51:50.554Z,7.62
2018-04-02T08:54:18.251Z,8.20
2018-04-02T08:56:45.892Z,8.27
2018-04-02T08:59:13.523Z,7.33
2018-04-02T09:01:41.127Z,9.20
2018-04-02T09:04:08.740Z,7.93
2018-04-02T09:06:37.178Z,7.03
2018-04-02T09:09:04.809Z,7.45
2018-04-02T09:11:32.470Z,7.18
2018-04-02T09:14:00.073Z,6.73
2018-04-02T09:16:27.763Z,7.03
2018-04-02T09:18:55.384Z,8.18
2018-04-02T09:21:23.242Z,6.83
2018-04-02T09:23:51.789Z,6.62
2018-04-02T09:26:19.469Z,8.07
2018-04-02T09:28:47.892Z,7.07
2018-04-02T09:31:15.509Z,6.78
2018-04-02T09:33:43.912Z,5.40
2018-04-02T09:36:12.333Z,5.50
2018-04-02T09:38:39.984Z,6.40
2018-04-02T09:41:07.597Z,6.75
2018-04-02T09:43:35.214Z,6.35
2018-04-02T09:46:02.830Z,6.87
2018-04-02T09:48:31.254Z,6.37
2018-04-02T09:50:59.640Z,6.00
2018-04-02T09:53:28.059Z,6.28
2018-04-02T09:55:55.689Z,6.43
2018-04-02T09:58:24.173Z,6.12
2018-04-02T10:00:57.433Z,6.95
2018-04-02T10:03:25.061Z,5.33
2018-04-02T10:05:52.701Z,5.43
2018-04-02T10:08:20.483Z,6.22
2018-04-02T10:10:48.085Z,4.85
2018-04-02T10:13:15.683Z,5.30
2018-04-02T10:15:44.098Z,5.70
2018-04-02T10:18:11.738Z,5.65
2018-04-02T10:20:39.462Z,4.67
2018-04-02T10:23:07.052Z,5.35
2018-04-02T10:25:34.701Z,5.05
2018-04-02T10:28:02.309Z,4.20
2018-04-02T10:30:30.742Z,4.30
2018-04-02T10:32:58.351Z,4.65
2018-04-02T10:35:26.008Z,4.85
2018-04-02T10:37:53.646Z,3.90
2018-04-02T10:40:21.280Z,3.15
2018-04-02T10:42:49.690Z,4.05
2018-04-02T10:45:18.080Z,4.20
2018-04-02T10:47:45.745Z,4.32
2018-04-02T10:50:13.414Z,4.87
2018-04-02T10:52:41.055Z,5.35
2018-04-02T10:55:08.731Z,4.68
2018-04-02T10:57:36.347Z,4.18
2018-04-02T11:00:03.999Z,4.25
2018-04-02T11:02:31.621Z,3.42
2018-04-02T11:04:59.211Z,4.65
2018-04-02T11:07:26.943Z,3.67
2018-04-02T11:09:54.570Z,3.60
2018-04-02T11:12:22.194Z,3.90
2018-04-02T11:14:49.877Z,4.47
2018-04-02T11:17:17.497Z,4.78
2018-04-02T11:19:45.923Z,3.35
2018-04-02T11:22:13.512Z,5.90
2018-04-02T11:24:41.162Z,5.70
2018-04-02T11:27:08.792Z,3.70
2018-04-02T11:29:36.443Z,4.03
2018-04-02T11:32:04.845Z,3.85
2018-04-02T11:34:32.503Z,4.33
2018-04-02T11:37:00.903Z,5.28
2018-04-02T11:39:28.537Z,4.32
2018-04-02T11:41:57.020Z,5.43
2018-04-02T11:44:25.523Z,4.62
2018-04-02T11:46:53.096Z,3.97
2018-04-02T11:49:20.737Z,4.55
2018-04-02T11:51:48.426Z,4.90
2018-04-02T11:54:16.075Z,4.07
2018-04-02T11:56:43.699Z,4.40
2018-04-02T11:59:11.389Z,4.03
2018-04-02T12:01:39.038Z,3.53
2018-04-02T12:04:06.646Z,4.68
2018-04-02T12:06:35.098Z,4.12
2018-04-02T12:09:02.738Z,5.28
2018-04-02T12:11:30.399Z,4.00
2018-04-02T12:13:58.052Z,4.30
2018-04-02T12:16:26.446Z,4.40
2018-04-02T12:18:54.039Z,4.90
2018-04-02T12:21:21.675Z,3.37
2018-04-02T12:23:49.315Z,4.00
2018-04-02T12:26:17.729Z,3.83
2018-04-02T12:28:45.396Z,4.33
2018-04-02T12:31:13.037Z,4.32
2018-04-02T12:33:41.463Z,3.37
2018-04-02T12:36:09.103Z,4.90
2018-04-02T12:38:36.797Z,3.60
2018-04-02T12:41:04.428Z,5.25
2018-04-02T12:43:32.117Z,3.65
2018-04-02T12:45:59.725Z,3.92
2018-04-02T12:48:27.376Z,3.33
2018-04-02T12:50:55.010Z,5.10
2018-04-02T12:53:22.672Z,3.75
2018-04-02T12:55:50.346Z,3.70
2018-04-02T12:58:17.988Z,4.05
2018-04-02T13:00:46.389Z,4.80
2018-04-02T13:03:14.076Z,3.20
2018-04-02T13:05:41.725Z,4.47
2018-04-02T13:08:09.327Z,4.83
2018-04-02T13:10:37.003Z,4.15
2018-04-02T13:13:04.634Z,4.10
2018-04-02T13:15:32.370Z,3.78
2018-04-02T13:18:00.749Z,3.42
2018-04-02T13:20:28.402Z,3.73
2018-04-02T13:22:56.084Z,3.55
2018-04-02T13:25:24.688Z,3.10
2018-04-02T13:27:52.809Z,3.90
2018-04-02T13:30:20.460Z,4.70
2018-04-02T13:32:48.098Z,3.10
2018-04-02T13:35:16.533Z,2.85
2018-04-02T13:37:45.008Z,3.25
2018-04-02T13:40:12.676Z,3.67
2018-04-02T13:42:43.365Z,3.33
2018-04-02T13:45:07.985Z,4.15
2018-04-02T13:47:36.001Z,3.80
2018-04-02T13:50:03.659Z,4.18
2018-04-02T13:52:31.330Z,3.78
2018-04-02T13:54:59.777Z,3.17
2018-04-02T13:57:27.591Z,3.90
2018-04-02T13:59:56.054Z,3.53
2018-04-02T14:02:23.678Z,3.50
2018-04-02T14:04:51.297Z,3.07
2018-04-02T14:07:18.969Z,5.20
2018-04-02T14:09:46.658Z,3.62
2018-04-02T14:12:15.239Z,4.15
2018-04-02T14:14:42.868Z,4.10
2018-04-02T14:17:10.496Z,2.93
2018-04-02T14:19:38.328Z,3.08
2018-04-02T14:22:06.759Z,3.70
2018-04-02T14:24:34.408Z,3.30
2018-04-02T14:27:02.062Z,3.67
2018-04-02T14:29:30.472Z,3.93
2018-04-02T14:31:58.204Z,3.80
2018-04-02T14:34:25.864Z,3.80
2018-04-02T14:36:53.506Z,4.37
2018-04-02T14:39:21.164Z,3.80
2018-04-02T14:41:48.828Z,4.18
2018-04-02T14:44:16.596Z,4.10
2018-04-02T14:46:44.213Z,3.87
2018-04-02T14:49:12.602Z,4.65
2018-04-02T14:51:41.032Z,2.95
2018-04-02T14:54:08.989Z,3.80
2018-04-02T14:56:36.672Z,2.87
2018-04-02T14:59:04.368Z,3.78
2018-04-02T15:01:32.086Z,3.47
2018-04-02T15:03:59.729Z,4.32
2018-04-02T15:06:27.497Z,3.85
2018-04-02T15:08:55.893Z,3.28
2018-04-02T15:11:23.570Z,4.32
2018-04-02T15:13:51.543Z,4.55
2018-04-02T15:16:19.235Z,4.10
2018-04-02T15:18:46.874Z,3.47
2018-04-02T15:21:14.509Z,3.65
2018-04-02T15:23:42.906Z,5.00
2018-04-02T15:26:10.571Z,4.62
2018-04-02T15:28:39.027Z,4.28
2018-04-02T15:31:06.669Z,5.67
2018-04-02T15:33:34.365Z,4.80
2018-04-02T15:36:02.828Z,5.43
2018-04-02T15:38:30.465Z,4.20
2018-04-02T15:40:58.119Z,4.20
2018-04-02T15:43:25.900Z,4.70
2018-04-02T15:45:53.592Z,4.65
2018-04-02T15:48:21.238Z,4.68
2018-04-02T15:50:48.902Z,4.60
2018-04-02T15:53:16.540Z,5.03
2018-04-02T15:55:44.986Z,5.18
2018-04-02T15:58:12.611Z,5.00
2018-04-02T16:00:40.982Z,4.10
2018-04-02T16:03:09.492Z,4.80
2018-04-02T16:05:37.113Z,5.90
2018-04-02T16:08:04.751Z,5.97
2018-04-02T16:10:32.423Z,5.53
2018-04-02T16:13:00.106Z,5.70
2018-04-02T16:15:27.793Z,5.65
2018-04-02T16:17:55.558Z,6.05
2018-04-02T16:20:23.167Z,5.35
2018-04-02T16:22:51.973Z,5.62
2018-04-02T16:25:19.629Z,6.25
2018-04-02T16:27:47.951Z,5.55
2018-04-02T16:30:15.644Z,6.50
2018-04-02T16:32:43.295Z,6.43
2018-04-02T16:35:10.960Z,6.65
2018-04-02T16:37:38.621Z,5.93
2018-04-02T16:40:07.161Z,7.07
2018-04-02T16:42:34.879Z,6.30
2018-04-02T16:45:02.591Z,6.75
2018-04-02T16:47:30.323Z,7.60
2018-04-02T16:49:57.954Z,7.22
2018-04-02T16:52:25.585Z,7.10
2018-04-02T16:54:54.102Z,6.80
2018-04-02T16:57:21.738Z,8.07
2018-04-02T16:59:50.162Z,7.47
2018-04-02T17:02:17.775Z,9.52
2018-04-02T17:04:45.434Z,7.85
2018-04-02T17:07:13.883Z,6.70
2018-04-02T17:09:41.553Z,6.60
2018-04-02T17:12:09.263Z,6.72
2018-04-02T17:14:37.699Z,7.22
2018-04-02T17:17:05.314Z,6.30
2018-04-02T17:19:34.636Z,7.07
2018-04-02T17:22:02.325Z,7.37
2018-04-02T17:24:30.475Z,7.80
2018-04-02T17:26:58.108Z,6.40
2018-04-02T17:29:26.555Z,6.93
2018-04-02T17:31:54.249Z,7.70
2018-04-02T17:34:21.883Z,6.10
2018-04-02T17:36:49.636Z,7.75
2018-04-02T17:39:17.315Z,7.55
2018-04-02T17:41:44.998Z,7.12
2018-04-02T17:44:12.653Z,8.15
2018-04-02T17:46:40.265Z,7.03
2018-04-02T17:49:07.929Z,7.32
2018-04-02T17:51:36.410Z,7.90
2018-04-02T17:54:04.116Z,7.82
2018-04-02T17:56:32.526Z,7.70
2018-04-02T17:59:00.233Z,7.82
2018-04-02T18:01:27.894Z,9.07
2018-04-02T18:03:56.124Z,8.00
2018-04-02T18:06:23.891Z,7.18
2018-04-02T18:08:52.409Z,7.68
2018-04-02T18:11:20.221Z,9.20
2018-04-02T18:13:50.004Z,7.20
2018-04-02T18:16:17.683Z,7.37
2018-04-02T18:18:46.379Z,6.65
2018-04-02T18:21:14.023Z,7.50
2018-04-02T18:23:41.713Z,6.97
2018-04-02T18:26:09.355Z,7.57
2018-04-02T18:28:37.678Z,5.80
2018-04-02T18:31:05.329Z,5.80
2018-04-02T18:33:33.252Z,6.22
2018-04-02T18:36:00.973Z,5.22
2018-04-02T18:38:28.718Z,5.20
2018-04-02T18:40:57.360Z,5.05
2018-04-02T18:43:26.047Z,5.03
2018-04-02T18:45:55.499Z,4.70
2018-04-02T18:48:23.173Z,6.93
2018-04-02T18:50:50.935Z,4.80
2018-04-02T18:53:18.736Z,6.00
2018-04-02T18:55:46.452Z,6.12
2018-04-02T18:58:14.124Z,6.47
2018-04-02T19:00:41.812Z,6.30
2018-04-02T19:03:09.687Z,6.40
2018-04-02T19:05:37.314Z,5.90
2018-04-02T19:08:05.745Z,7.25
2018-04-02T19:10:33.462Z,6.30
2018-04-02T19:13:01.098Z,6.50
2018-04-02T19:15:28.720Z,6.87
2018-04-02T19:17:58.034Z,7.85
2018-04-02T19:20:25.673Z,7.35
2018-04-02T19:22:53.354Z,8.60
2018-04-02T19:25:21.788Z,9.40
2018-04-02T19:27:49.421Z,9.10
2018-04-02T19:30:17.124Z,9.35
2018-04-02T19:32:45.598Z,9.75
2018-04-02T19:35:13.247Z,9.93
2018-04-02T19:37:40.841Z,10.20
2018-04-02T19:40:08.491Z,11.03
2018-04-02T19:42:36.146Z,10.68
2018-04-02T19:45:03.790Z,10.85
2018-04-02T19:47:32.203Z,11.57
2018-04-02T19:49:59.855Z,11.52
2018-04-02T19:52:27.538Z,10.82
2018-04-02T19:54:55.210Z,12.45
2018-04-02T19:57:23.248Z,11.97
2018-04-02T19:59:51.632Z,14.40
2018-04-02T20:02:20.029Z,10.18
2018-04-02T20:04:47.729Z,13.10
2018-04-02T20:07:15.326Z,13.00
2018-04-02T20:09:43.170Z,11.48
2018-04-02T20:12:10.796Z,12.15
2018-04-02T20:14:39.229Z,10.73
2018-04-02T20:17:06.897Z,11.90
2018-04-02T20:19:34.828Z,11.85
2018-04-02T20:22:02.445Z,12.75
2018-04-02T20:24:30.180Z,14.18
2018-04-02T20:26:58.103Z,12.70
2018-04-02T20:29:26.497Z,9.80
2018-04-02T20:31:54.918Z,11.48
2018-04-02T20:34:22.603Z,12.15
2018-04-02T20:36:50.344Z,12.48
2018-04-02T20:39:17.967Z,11.07
2018-04-02T20:41:45.630Z,12.48
2018-04-02T20:44:13.370Z,12.80
2018-04-02T20:46:41.252Z,11.85
2018-04-02T20:49:09.938Z,11.00
2018-04-02T20:51:38.377Z,12.48
2018-04-02T20:54:06.064Z,11.20
2018-04-02T20:56:33.758Z,10.80
2018-04-02T20:59:01.384Z,12.07
2018-04-02T21:01:29.785Z,11.02
2018-04-02T21:03:57.528Z,11.15
2018-04-02T21:06:25.931Z,12.00
2018-04-02T21:08:53.608Z,11.00
2018-04-02T21:11:21.290Z,13.30
2018-04-02T21:13:48.941Z,10.93
2018-04-02T21:16:16.900Z,11.88
2018-04-02T21:18:45.318Z,11.25
2018-04-02T21:21:12.961Z,11.00
2018-04-02T21:23:40.646Z,12.45
2018-04-02T21:26:08.591Z,12.18
2018-04-02T21:28:36.236Z,10.45
2018-04-02T21:31:03.936Z,11.65
2018-04-02T21:33:31.783Z,10.35
2018-04-02T21:35:59.514Z,10.68
2018-04-02T21:38:27.266Z,10.63
2018-04-02T21:40:54.975Z,12.55
2018-04-02T21:43:23.945Z,10.13
2018-04-02T21:45:51.735Z,10.27
2018-04-02T21:48:20.137Z,11.80
2018-04-02T21:50:48.555Z,9.80
2018-04-02T21:53:17.277Z,11.30
2018-04-02T21:55:44.924Z,11.05
2018-04-02T21:58:12.604Z,12.23
2018-04-02T22:00:40.290Z,11.18
2018-04-02T22:03:07.930Z,11.48
2018-04-02T22:05:35.603Z,11.90
2018-04-02T22:08:10.756Z,11.10
2018-04-02T22:10:38.362Z,11.75
2018-04-02T22:13:06.762Z,11.50
2018-04-02T22:15:34.400Z,10.68
2018-04-02T22:18:02.956Z,10.68
2018-04-02T22:20:30.618Z,9.70
2018-04-02T22:22:58.239Z,10.00
2018-04-02T22:25:27.555Z,10.50
2018-04-02T22:27:55.184Z,12.32
2018-04-02T22:30:24.496Z,11.52
2018-04-02T22:32:53.759Z,10.45
2018-04-02T22:35:21.430Z,11.65
2018-04-02T22:37:49.043Z,10.80
2018-04-02T22:40:17.449Z,10.55
2018-04-02T22:42:45.314Z,12.00
2018-04-02T22:45:13.553Z,10.35
2018-04-02T22:47:41.182Z,12.43
2018-04-02T22:50:08.857Z,12.48
2018-04-02T22:52:36.509Z,10.13
2018-04-02T22:55:04.149Z,11.57
2018-04-02T22:57:32.565Z,10.07
2018-04-02T23:00:00.212Z,11.57
2018-04-02T23:02:27.850Z,11.95
2018-04-02T23:04:55.621Z,11.73
2018-04-02T23:07:23.287Z,11.93
2018-04-02T23:09:51.729Z,10.30
2018-04-02T23:12:19.393Z,11.12
2018-04-02T23:14:47.007Z,11.50
2018-04-02T23:17:15.412Z,10.40
2018-04-02T23:19:43.055Z,10.98
2018-04-02T23:22:11.491Z,10.73
2018-04-02T23:24:39.530Z,12.10
2018-04-02T23:27:07.934Z,11.35
2018-04-02T23:29:35.595Z,12.13
2018-04-02T23:32:03.260Z,13.70
2018-04-02T23:34:30.927Z,9.75
2018-04-02T23:36:58.544Z,10.70
2018-04-02T23:39:26.184Z,11.73
2018-04-02T23:41:53.809Z,11.63
2018-04-02T23:44:22.212Z,11.35
2018-04-02T23:46:51.351Z,11.10
2018-04-02T23:49:18.961Z,10.70
2018-04-02T23:51:47.376Z,11.02
2018-04-02T23:54:15.025Z,13.25
2018-04-02T23:56:42.665Z,10.20
2018-04-02T23:59:10.285Z,10.20
